sensor_id;sensor_type;location;lat;lon;timestamp;temperature;humidity
15115;DHT22;7658;51.456;7.622;2023-05-14T00:02:00;9.80;99.90
15115;DHT22;7658;51.456;7.622;2023-05-14T00:04:26;9.80;99.90
15115;DHT22;7658;51.456;7.622;2023-05-14T00:06:52;9.70;99.90
15115;DHT22;7658;51.456;7.622;2023-05-14T00:09:17;9.80;99.90
15115;DHT22;7658;51.456;7.622;2023-05-14T00:11:43;9.70;99.90
15115;DHT22;7658;51.456;7.622;2023-05-14T00:14:09;9.70;99.90
15115;DHT22;7658;51.456;7.622;2023-05-14T00:16:34;9.60;99.90
15115;DHT22;7658;51.456;7.622;2023-05-14T00:19:00;9.60;99.90
15115;DHT22;7658;51.456;7.622;2023-05-14T00:21:26;9.60;99.90
15115;DHT22;7658;51.456;7.622;2023-05-14T00:23:52;9.60;99.90
15115;DHT22;7658;51.456;7.622;2023-05-14T00:26:17;9.70;99.90
15115;DHT22;7658;51.456;7.622;2023-05-14T00:28:44;9.90;99.90
15115;DHT22;7658;51.456;7.622;2023-05-14T00:31:10;9.80;99.90
15115;DHT22;7658;51.456;7.622;2023-05-14T00:33:36;9.90;99.90
15115;DHT22;7658;51.456;7.622;2023-05-14T00:36:01;9.90;99.90
15115;DHT22;7658;51.456;7.622;2023-05-14T00:38:28;10.00;99.90
15115;DHT22;7658;51.456;7.622;2023-05-14T00:40:54;10.00;99.90
15115;DHT22;7658;51.456;7.622;2023-05-14T00:43:20;10.10;99.90
15115;DHT22;7658;51.456;7.622;2023-05-14T00:45:49;9.80;99.90
15115;DHT22;7658;51.456;7.622;2023-05-14T00:48:16;9.80;99.90
15115;DHT22;7658;51.456;7.622;2023-05-14T00:50:42;9.90;99.90
15115;DHT22;7658;51.456;7.622;2023-05-14T00:53:08;10.00;99.90
15115;DHT22;7658;51.456;7.622;2023-05-14T00:55:40;10.10;99.90
15115;DHT22;7658;51.456;7.622;2023-05-14T00:58:09;10.10;99.90
15115;DHT22;7658;51.456;7.622;2023-05-14T01:00:35;10.10;99.90
15115;DHT22;7658;51.456;7.622;2023-05-14T01:03:03;10.10;99.90
15115;DHT22;7658;51.456;7.622;2023-05-14T01:11:04;9.90;99.90
15115;DHT22;7658;51.456;7.622;2023-05-14T01:16:10;9.90;99.90
15115;DHT22;7658;51.456;7.622;2023-05-14T01:18:37;9.90;99.90
15115;DHT22;7658;51.456;7.622;2023-05-14T01:21:04;9.80;99.90
15115;DHT22;7658;51.456;7.622;2023-05-14T01:23:42;9.80;99.90
15115;DHT22;7658;51.456;7.622;2023-05-14T01:26:08;9.60;99.90
15115;DHT22;7658;51.456;7.622;2023-05-14T01:28:35;9.40;99.90
15115;DHT22;7658;51.456;7.622;2023-05-14T01:31:15;9.20;99.90
15115;DHT22;7658;51.456;7.622;2023-05-14T01:33:43;9.10;99.90
15115;DHT22;7658;51.456;7.622;2023-05-14T01:36:12;9.10;99.90
15115;DHT22;7658;51.456;7.622;2023-05-14T01:38:37;9.00;99.90
15115;DHT22;7658;51.456;7.622;2023-05-14T01:41:04;8.90;99.90
15115;DHT22;7658;51.456;7.622;2023-05-14T01:43:30;9.00;99.90
15115;DHT22;7658;51.456;7.622;2023-05-14T01:45:56;9.00;99.90
15115;DHT22;7658;51.456;7.622;2023-05-14T01:48:22;9.10;99.90
15115;DHT22;7658;51.456;7.622;2023-05-14T01:50:48;9.20;99.90
15115;DHT22;7658;51.456;7.622;2023-05-14T01:53:13;9.20;99.90
15115;DHT22;7658;51.456;7.622;2023-05-14T01:55:39;9.30;99.90
15115;DHT22;7658;51.456;7.622;2023-05-14T01:58:05;9.40;99.90
15115;DHT22;7658;51.456;7.622;2023-05-14T02:00:30;9.40;99.90
15115;DHT22;7658;51.456;7.622;2023-05-14T02:02:56;9.50;99.90
15115;DHT22;7658;51.456;7.622;2023-05-14T02:05:22;9.40;99.90
15115;DHT22;7658;51.456;7.622;2023-05-14T02:07:47;9.30;99.90
15115;DHT22;7658;51.456;7.622;2023-05-14T02:10:13;9.30;99.90
15115;DHT22;7658;51.456;7.622;2023-05-14T02:12:39;9.30;99.90
15115;DHT22;7658;51.456;7.622;2023-05-14T02:15:05;9.40;99.90
15115;DHT22;7658;51.456;7.622;2023-05-14T02:17:33;9.40;99.90
15115;DHT22;7658;51.456;7.622;2023-05-14T02:19:58;9.50;99.90
15115;DHT22;7658;51.456;7.622;2023-05-14T02:22:24;9.40;99.90
15115;DHT22;7658;51.456;7.622;2023-05-14T02:24:50;9.20;99.90
15115;DHT22;7658;51.456;7.622;2023-05-14T02:27:15;9.10;99.90
15115;DHT22;7658;51.456;7.622;2023-05-14T02:29:41;9.10;99.90
15115;DHT22;7658;51.456;7.622;2023-05-14T02:32:07;9.20;99.90
15115;DHT22;7658;51.456;7.622;2023-05-14T02:34:33;9.10;99.90
15115;DHT22;7658;51.456;7.622;2023-05-14T02:36:59;8.90;99.90
15115;DHT22;7658;51.456;7.622;2023-05-14T02:39:25;8.70;99.90
15115;DHT22;7658;51.456;7.622;2023-05-14T02:41:50;8.70;99.90
15115;DHT22;7658;51.456;7.622;2023-05-14T02:44:16;8.70;99.90
15115;DHT22;7658;51.456;7.622;2023-05-14T02:46:42;8.70;99.90
15115;DHT22;7658;51.456;7.622;2023-05-14T02:49:08;8.60;99.90
15115;DHT22;7658;51.456;7.622;2023-05-14T02:51:33;8.50;99.90
15115;DHT22;7658;51.456;7.622;2023-05-14T02:53:59;8.50;99.90
15115;DHT22;7658;51.456;7.622;2023-05-14T02:56:25;8.50;99.90
15115;DHT22;7658;51.456;7.622;2023-05-14T02:58:51;8.60;99.90
15115;DHT22;7658;51.456;7.622;2023-05-14T03:01:16;8.70;99.90
15115;DHT22;7658;51.456;7.622;2023-05-14T03:03:43;8.70;99.90
15115;DHT22;7658;51.456;7.622;2023-05-14T03:06:09;8.70;99.90
15115;DHT22;7658;51.456;7.622;2023-05-14T03:08:35;8.50;99.90
15115;DHT22;7658;51.456;7.622;2023-05-14T03:11:01;8.60;99.90
15115;DHT22;7658;51.456;7.622;2023-05-14T03:13:27;8.40;99.90
15115;DHT22;7658;51.456;7.622;2023-05-14T03:15:53;8.30;99.90
15115;DHT22;7658;51.456;7.622;2023-05-14T03:18:21;8.30;99.90
15115;DHT22;7658;51.456;7.622;2023-05-14T03:20:47;8.20;99.90
15115;DHT22;7658;51.456;7.622;2023-05-14T03:23:13;8.10;99.90
15115;DHT22;7658;51.456;7.622;2023-05-14T03:25:40;8.00;99.90
15115;DHT22;7658;51.456;7.622;2023-05-14T03:28:05;8.00;99.90
15115;DHT22;7658;51.456;7.622;2023-05-14T03:30:31;8.00;99.90
15115;DHT22;7658;51.456;7.622;2023-05-14T03:32:57;7.90;99.90
15115;DHT22;7658;51.456;7.622;2023-05-14T03:35:23;7.90;99.90
15115;DHT22;7658;51.456;7.622;2023-05-14T03:37:49;7.90;99.90
15115;DHT22;7658;51.456;7.622;2023-05-14T03:40:15;7.80;99.90
15115;DHT22;7658;51.456;7.622;2023-05-14T03:42:41;7.80;99.90
15115;DHT22;7658;51.456;7.622;2023-05-14T03:45:07;7.80;99.90
15115;DHT22;7658;51.456;7.622;2023-05-14T03:47:33;7.80;99.90
15115;DHT22;7658;51.456;7.622;2023-05-14T03:49:58;7.70;99.90
15115;DHT22;7658;51.456;7.622;2023-05-14T03:52:24;7.70;99.90
15115;DHT22;7658;51.456;7.622;2023-05-14T03:54:50;7.70;99.90
15115;DHT22;7658;51.456;7.622;2023-05-14T03:57:16;7.70;99.90
15115;DHT22;7658;51.456;7.622;2023-05-14T03:59:41;7.70;99.90
15115;DHT22;7658;51.456;7.622;2023-05-14T04:02:07;7.70;99.90
15115;DHT22;7658;51.456;7.622;2023-05-14T04:04:33;7.60;99.90
15115;DHT22;7658;51.456;7.622;2023-05-14T04:06:58;7.60;99.90
15115;DHT22;7658;51.456;7.622;2023-05-14T04:09:24;7.60;99.90
15115;DHT22;7658;51.456;7.622;2023-05-14T04:11:50;7.70;99.90
15115;DHT22;7658;51.456;7.622;2023-05-14T04:14:15;7.70;99.90
15115;DHT22;7658;51.456;7.622;2023-05-14T04:16:41;7.80;99.90
15115;DHT22;7658;51.456;7.622;2023-05-14T04:19:07;7.90;99.90
15115;DHT22;7658;51.456;7.622;2023-05-14T04:21:32;8.10;99.90
15115;DHT22;7658;51.456;7.622;2023-05-14T04:23:58;8.20;99.90
15115;DHT22;7658;51.456;7.622;2023-05-14T04:26:24;8.20;99.90
15115;DHT22;7658;51.456;7.622;2023-05-14T04:28:49;8.20;99.90
15115;DHT22;7658;51.456;7.622;2023-05-14T04:31:15;8.30;99.90
15115;DHT22;7658;51.456;7.622;2023-05-14T04:33:41;8.40;99.90
15115;DHT22;7658;51.456;7.622;2023-05-14T04:36:07;8.20;99.90
15115;DHT22;7658;51.456;7.622;2023-05-14T04:38:33;8.10;99.90
15115;DHT22;7658;51.456;7.622;2023-05-14T04:40:58;8.00;99.90
15115;DHT22;7658;51.456;7.622;2023-05-14T04:43:24;7.90;99.90
15115;DHT22;7658;51.456;7.622;2023-05-14T04:45:50;8.00;99.90
15115;DHT22;7658;51.456;7.622;2023-05-14T04:48:17;8.00;99.90
15115;DHT22;7658;51.456;7.622;2023-05-14T04:50:43;8.00;99.90
15115;DHT22;7658;51.456;7.622;2023-05-14T04:53:09;8.00;99.90
15115;DHT22;7658;51.456;7.622;2023-05-14T04:55:35;8.10;99.90
15115;DHT22;7658;51.456;7.622;2023-05-14T04:58:01;8.20;99.90
15115;DHT22;7658;51.456;7.622;2023-05-14T05:00:28;8.30;99.90
15115;DHT22;7658;51.456;7.622;2023-05-14T05:02:54;8.30;99.90
15115;DHT22;7658;51.456;7.622;2023-05-14T05:05:20;8.40;99.90
15115;DHT22;7658;51.456;7.622;2023-05-14T05:07:46;8.50;99.90
15115;DHT22;7658;51.456;7.622;2023-05-14T05:10:11;8.70;99.90
15115;DHT22;7658;51.456;7.622;2023-05-14T05:12:37;8.80;99.90
15115;DHT22;7658;51.456;7.622;2023-05-14T05:15:04;9.00;99.90
15115;DHT22;7658;51.456;7.622;2023-05-14T05:17:30;9.20;99.90
15115;DHT22;7658;51.456;7.622;2023-05-14T05:19:55;9.30;99.90
15115;DHT22;7658;51.456;7.622;2023-05-14T05:22:22;9.30;99.90
15115;DHT22;7658;51.456;7.622;2023-05-14T05:24:48;9.40;99.90
15115;DHT22;7658;51.456;7.622;2023-05-14T05:27:14;9.40;99.90
15115;DHT22;7658;51.456;7.622;2023-05-14T05:29:39;9.50;99.90
15115;DHT22;7658;51.456;7.622;2023-05-14T05:32:06;9.60;99.90
15115;DHT22;7658;51.456;7.622;2023-05-14T05:34:32;9.70;99.90
15115;DHT22;7658;51.456;7.622;2023-05-14T05:36:58;9.60;99.90
15115;DHT22;7658;51.456;7.622;2023-05-14T05:39:24;9.70;99.90
15115;DHT22;7658;51.456;7.622;2023-05-14T05:41:50;9.80;99.90
15115;DHT22;7658;51.456;7.622;2023-05-14T05:44:16;9.90;99.90
15115;DHT22;7658;51.456;7.622;2023-05-14T05:46:41;10.10;99.90
15115;DHT22;7658;51.456;7.622;2023-05-14T05:49:07;10.10;99.90
15115;DHT22;7658;51.456;7.622;2023-05-14T05:51:33;10.10;99.90
15115;DHT22;7658;51.456;7.622;2023-05-14T05:53:58;10.30;99.90
15115;DHT22;7658;51.456;7.622;2023-05-14T05:56:49;10.30;99.90
15115;DHT22;7658;51.456;7.622;2023-05-14T05:59:31;10.40;99.90
15115;DHT22;7658;51.456;7.622;2023-05-14T06:02:04;10.50;99.90
15115;DHT22;7658;51.456;7.622;2023-05-14T06:04:30;10.40;99.90
15115;DHT22;7658;51.456;7.622;2023-05-14T06:06:57;10.40;99.90
15115;DHT22;7658;51.456;7.622;2023-05-14T06:09:22;10.40;99.90
15115;DHT22;7658;51.456;7.622;2023-05-14T06:11:48;10.40;99.90
15115;DHT22;7658;51.456;7.622;2023-05-14T06:14:14;10.40;99.90
15115;DHT22;7658;51.456;7.622;2023-05-14T06:16:40;10.30;99.90
15115;DHT22;7658;51.456;7.622;2023-05-14T06:19:16;10.40;99.90
15115;DHT22;7658;51.456;7.622;2023-05-14T06:21:47;10.60;99.90
15115;DHT22;7658;51.456;7.622;2023-05-14T06:24:21;10.80;99.90
15115;DHT22;7658;51.456;7.622;2023-05-14T06:26:49;11.00;99.90
15115;DHT22;7658;51.456;7.622;2023-05-14T06:29:15;11.00;99.90
15115;DHT22;7658;51.456;7.622;2023-05-14T06:31:41;11.20;99.90
15115;DHT22;7658;51.456;7.622;2023-05-14T06:34:11;11.30;99.90
15115;DHT22;7658;51.456;7.622;2023-05-14T06:36:39;11.40;99.90
15115;DHT22;7658;51.456;7.622;2023-05-14T06:39:05;11.60;99.90
15115;DHT22;7658;51.456;7.622;2023-05-14T06:41:31;11.70;99.90
15115;DHT22;7658;51.456;7.622;2023-05-14T06:43:56;11.80;99.90
15115;DHT22;7658;51.456;7.622;2023-05-14T06:46:22;11.90;99.90
15115;DHT22;7658;51.456;7.622;2023-05-14T06:48:48;12.00;99.90
15115;DHT22;7658;51.456;7.622;2023-05-14T06:51:14;12.20;99.90
15115;DHT22;7658;51.456;7.622;2023-05-14T06:53:40;12.30;99.90
15115;DHT22;7658;51.456;7.622;2023-05-14T06:56:06;12.40;99.90
15115;DHT22;7658;51.456;7.622;2023-05-14T06:58:32;12.50;99.90
15115;DHT22;7658;51.456;7.622;2023-05-14T07:00:58;12.60;99.90
15115;DHT22;7658;51.456;7.622;2023-05-14T07:03:24;12.70;99.90
15115;DHT22;7658;51.456;7.622;2023-05-14T07:05:50;12.80;99.90
15115;DHT22;7658;51.456;7.622;2023-05-14T07:08:19;12.90;99.90
15115;DHT22;7658;51.456;7.622;2023-05-14T07:10:45;13.10;99.90
15115;DHT22;7658;51.456;7.622;2023-05-14T07:13:10;13.20;99.90
15115;DHT22;7658;51.456;7.622;2023-05-14T07:15:36;13.30;99.90
15115;DHT22;7658;51.456;7.622;2023-05-14T07:18:02;13.50;99.90
15115;DHT22;7658;51.456;7.622;2023-05-14T07:20:28;13.60;99.90
15115;DHT22;7658;51.456;7.622;2023-05-14T07:22:53;13.70;99.90
15115;DHT22;7658;51.456;7.622;2023-05-14T07:25:19;13.80;99.90
15115;DHT22;7658;51.456;7.622;2023-05-14T07:27:45;13.90;99.90
15115;DHT22;7658;51.456;7.622;2023-05-14T07:30:11;14.10;99.90
15115;DHT22;7658;51.456;7.622;2023-05-14T07:32:36;14.20;99.90
15115;DHT22;7658;51.456;7.622;2023-05-14T07:35:02;14.40;99.90
15115;DHT22;7658;51.456;7.622;2023-05-14T07:37:28;14.50;99.90
15115;DHT22;7658;51.456;7.622;2023-05-14T07:39:54;14.60;99.90
15115;DHT22;7658;51.456;7.622;2023-05-14T07:42:20;14.80;99.90
15115;DHT22;7658;51.456;7.622;2023-05-14T07:44:46;14.90;99.90
15115;DHT22;7658;51.456;7.622;2023-05-14T07:47:12;15.00;99.90
15115;DHT22;7658;51.456;7.622;2023-05-14T07:49:37;15.20;99.90
15115;DHT22;7658;51.456;7.622;2023-05-14T07:52:03;15.30;99.90
15115;DHT22;7658;51.456;7.622;2023-05-14T07:54:29;15.40;99.90
15115;DHT22;7658;51.456;7.622;2023-05-14T07:56:55;15.50;99.90
15115;DHT22;7658;51.456;7.622;2023-05-14T07:59:20;15.60;99.90
15115;DHT22;7658;51.456;7.622;2023-05-14T08:01:46;15.70;99.90
15115;DHT22;7658;51.456;7.622;2023-05-14T08:04:12;15.80;99.90
15115;DHT22;7658;51.456;7.622;2023-05-14T08:06:40;15.90;99.90
15115;DHT22;7658;51.456;7.622;2023-05-14T08:09:06;16.00;99.90
15115;DHT22;7658;51.456;7.622;2023-05-14T08:11:33;16.10;99.90
15115;DHT22;7658;51.456;7.622;2023-05-14T08:13:59;16.30;99.90
15115;DHT22;7658;51.456;7.622;2023-05-14T08:16:25;16.40;99.90
15115;DHT22;7658;51.456;7.622;2023-05-14T08:18:51;16.50;99.90
15115;DHT22;7658;51.456;7.622;2023-05-14T08:21:17;16.70;99.90
15115;DHT22;7658;51.456;7.622;2023-05-14T08:23:42;17.10;97.30
15115;DHT22;7658;51.456;7.622;2023-05-14T08:26:08;17.70;28.00
15115;DHT22;7658;51.456;7.622;2023-05-14T08:28:34;18.80;1.00
15115;DHT22;7658;51.456;7.622;2023-05-14T08:31:00;19.90;1.00
15115;DHT22;7658;51.456;7.622;2023-05-14T08:33:26;20.80;1.00
15115;DHT22;7658;51.456;7.622;2023-05-14T08:35:52;21.70;1.00
15115;DHT22;7658;51.456;7.622;2023-05-14T08:38:19;22.50;99.90
15115;DHT22;7658;51.456;7.622;2023-05-14T08:40:57;23.10;99.90
15115;DHT22;7658;51.456;7.622;2023-05-14T08:43:26;23.50;99.90
15115;DHT22;7658;51.456;7.622;2023-05-14T08:45:59;24.10;1.00
15115;DHT22;7658;51.456;7.622;2023-05-14T08:48:31;24.20;99.90
15115;DHT22;7658;51.456;7.622;2023-05-14T08:50:58;24.30;1.00
15115;DHT22;7658;51.456;7.622;2023-05-14T08:53:24;24.30;1.00
15115;DHT22;7658;51.456;7.622;2023-05-14T08:55:50;24.50;1.00
15115;DHT22;7658;51.456;7.622;2023-05-14T08:58:18;24.30;99.90
15115;DHT22;7658;51.456;7.622;2023-05-14T09:00:44;23.80;99.90
15115;DHT22;7658;51.456;7.622;2023-05-14T09:03:11;23.90;1.00
15115;DHT22;7658;51.456;7.622;2023-05-14T09:05:37;24.30;99.90
15115;DHT22;7658;51.456;7.622;2023-05-14T09:08:03;24.40;99.90
15115;DHT22;7658;51.456;7.622;2023-05-14T09:10:29;24.00;99.90
15115;DHT22;7658;51.456;7.622;2023-05-14T09:12:55;24.00;99.90
15115;DHT22;7658;51.456;7.622;2023-05-14T09:15:24;23.80;99.90
15115;DHT22;7658;51.456;7.622;2023-05-14T09:17:52;23.50;99.90
15115;DHT22;7658;51.456;7.622;2023-05-14T09:20:18;23.50;1.00
15115;DHT22;7658;51.456;7.622;2023-05-14T09:22:44;23.40;99.90
15115;DHT22;7658;51.456;7.622;2023-05-14T09:25:10;23.30;1.00
15115;DHT22;7658;51.456;7.622;2023-05-14T09:27:41;23.40;99.90
15115;DHT22;7658;51.456;7.622;2023-05-14T09:30:11;23.50;99.90
15115;DHT22;7658;51.456;7.622;2023-05-14T09:32:42;23.30;99.90
15115;DHT22;7658;51.456;7.622;2023-05-14T09:35:20;23.10;99.90
15115;DHT22;7658;51.456;7.622;2023-05-14T09:37:53;23.40;1.00
15115;DHT22;7658;51.456;7.622;2023-05-14T09:40:21;23.50;99.90
15115;DHT22;7658;51.456;7.622;2023-05-14T09:42:47;23.30;99.90
15115;DHT22;7658;51.456;7.622;2023-05-14T09:45:14;23.50;99.90
15115;DHT22;7658;51.456;7.622;2023-05-14T09:47:41;23.50;99.90
15115;DHT22;7658;51.456;7.622;2023-05-14T09:50:07;24.00;99.90
15115;DHT22;7658;51.456;7.622;2023-05-14T09:52:34;24.10;99.90
15115;DHT22;7658;51.456;7.622;2023-05-14T09:55:00;24.20;47.90
15115;DHT22;7658;51.456;7.622;2023-05-14T09:57:26;24.30;61.20
15115;DHT22;7658;51.456;7.622;2023-05-14T09:59:52;24.10;1.00
15115;DHT22;7658;51.456;7.622;2023-05-14T10:02:22;24.00;1.00
15115;DHT22;7658;51.456;7.622;2023-05-14T10:04:56;23.90;1.00
15115;DHT22;7658;51.456;7.622;2023-05-14T10:07:34;23.50;99.90
15115;DHT22;7658;51.456;7.622;2023-05-14T10:10:06;23.70;1.00
15115;DHT22;7658;51.456;7.622;2023-05-14T10:12:33;23.50;3.00
15115;DHT22;7658;51.456;7.622;2023-05-14T10:15:03;23.40;12.70
15115;DHT22;7658;51.456;7.622;2023-05-14T10:17:33;23.10;1.00
15115;DHT22;7658;51.456;7.622;2023-05-14T10:20:01;22.60;1.00
15115;DHT22;7658;51.456;7.622;2023-05-14T10:22:33;22.50;1.00
15115;DHT22;7658;51.456;7.622;2023-05-14T10:25:02;22.50;99.90
15115;DHT22;7658;51.456;7.622;2023-05-14T10:27:28;22.30;99.90
15115;DHT22;7658;51.456;7.622;2023-05-14T10:29:55;22.30;1.00
15115;DHT22;7658;51.456;7.622;2023-05-14T10:32:22;22.30;99.90
15115;DHT22;7658;51.456;7.622;2023-05-14T10:34:49;22.40;21.60
15115;DHT22;7658;51.456;7.622;2023-05-14T10:39:51;22.70;99.90
15115;DHT22;7658;51.456;7.622;2023-05-14T10:42:37;22.50;99.90
15115;DHT22;7658;51.456;7.622;2023-05-14T10:45:12;22.60;1.00
15115;DHT22;7658;51.456;7.622;2023-05-14T10:47:43;22.40;99.90
15115;DHT22;7658;51.456;7.622;2023-05-14T10:50:11;22.50;1.00
15115;DHT22;7658;51.456;7.622;2023-05-14T10:52:42;22.40;99.90
15115;DHT22;7658;51.456;7.622;2023-05-14T10:55:12;22.50;1.00
15115;DHT22;7658;51.456;7.622;2023-05-14T10:57:39;22.60;99.90
15115;DHT22;7658;51.456;7.622;2023-05-14T11:00:06;22.60;1.00
15115;DHT22;7658;51.456;7.622;2023-05-14T11:02:35;22.50;1.00
15115;DHT22;7658;51.456;7.622;2023-05-14T11:05:04;22.60;99.90
15115;DHT22;7658;51.456;7.622;2023-05-14T11:07:32;22.70;1.00
15115;DHT22;7658;51.456;7.622;2023-05-14T11:12:29;22.10;99.90
15115;DHT22;7658;51.456;7.622;2023-05-14T11:14:59;22.10;99.90
15115;DHT22;7658;51.456;7.622;2023-05-14T11:17:26;22.10;1.00
15115;DHT22;7658;51.456;7.622;2023-05-14T11:19:53;22.10;1.00
15115;DHT22;7658;51.456;7.622;2023-05-14T11:22:19;22.20;99.90
15115;DHT22;7658;51.456;7.622;2023-05-14T11:24:45;22.30;24.70
15115;DHT22;7658;51.456;7.622;2023-05-14T11:27:11;22.50;1.00
15115;DHT22;7658;51.456;7.622;2023-05-14T11:29:37;22.70;1.00
15115;DHT22;7658;51.456;7.622;2023-05-14T11:32:06;22.90;99.90
15115;DHT22;7658;51.456;7.622;2023-05-14T11:34:32;23.00;99.90
15115;DHT22;7658;51.456;7.622;2023-05-14T11:37:03;23.00;99.90
15115;DHT22;7658;51.456;7.622;2023-05-14T11:39:33;22.90;99.90
15115;DHT22;7658;51.456;7.622;2023-05-14T11:42:12;22.80;1.00
15115;DHT22;7658;51.456;7.622;2023-05-14T11:44:40;22.80;99.90
15115;DHT22;7658;51.456;7.622;2023-05-14T11:47:07;23.10;1.00
15115;DHT22;7658;51.456;7.622;2023-05-14T11:49:33;22.90;1.00
15115;DHT22;7658;51.456;7.622;2023-05-14T11:52:03;23.30;1.00
15115;DHT22;7658;51.456;7.622;2023-05-14T11:54:32;23.10;1.00
15115;DHT22;7658;51.456;7.622;2023-05-14T11:57:00;22.70;1.00
15115;DHT22;7658;51.456;7.622;2023-05-14T11:59:27;22.40;1.00
15115;DHT22;7658;51.456;7.622;2023-05-14T12:02:00;22.40;99.90
15115;DHT22;7658;51.456;7.622;2023-05-14T12:04:27;22.50;99.90
15115;DHT22;7658;51.456;7.622;2023-05-14T12:06:58;22.70;1.00
15115;DHT22;7658;51.456;7.622;2023-05-14T12:09:24;23.00;1.00
15115;DHT22;7658;51.456;7.622;2023-05-14T12:11:51;23.30;1.00
15115;DHT22;7658;51.456;7.622;2023-05-14T12:14:22;23.20;99.90
15115;DHT22;7658;51.456;7.622;2023-05-14T12:16:49;23.20;1.00
15115;DHT22;7658;51.456;7.622;2023-05-14T12:19:17;23.30;99.90
15115;DHT22;7658;51.456;7.622;2023-05-14T12:21:47;23.50;99.90
15115;DHT22;7658;51.456;7.622;2023-05-14T12:24:18;24.00;99.90
15115;DHT22;7658;51.456;7.622;2023-05-14T12:26:48;24.20;99.90
15115;DHT22;7658;51.456;7.622;2023-05-14T12:29:15;24.30;41.90
15115;DHT22;7658;51.456;7.622;2023-05-14T12:31:46;24.20;1.00
15115;DHT22;7658;51.456;7.622;2023-05-14T12:34:12;24.40;1.00
15115;DHT22;7658;51.456;7.622;2023-05-14T12:36:38;24.60;1.00
15115;DHT22;7658;51.456;7.622;2023-05-14T12:41:45;24.50;1.00
15115;DHT22;7658;51.456;7.622;2023-05-14T12:44:11;24.60;1.00
15115;DHT22;7658;51.456;7.622;2023-05-14T12:46:43;24.80;1.00
15115;DHT22;7658;51.456;7.622;2023-05-14T12:49:09;24.90;1.00
15115;DHT22;7658;51.456;7.622;2023-05-14T12:51:35;24.80;1.00
15115;DHT22;7658;51.456;7.622;2023-05-14T12:54:01;24.90;1.00
15115;DHT22;7658;51.456;7.622;2023-05-14T12:56:27;24.80;1.00
15115;DHT22;7658;51.456;7.622;2023-05-14T12:58:55;24.90;1.00
15115;DHT22;7658;51.456;7.622;2023-05-14T13:01:21;25.10;1.00
15115;DHT22;7658;51.456;7.622;2023-05-14T13:03:47;25.30;1.00
15115;DHT22;7658;51.456;7.622;2023-05-14T13:06:13;25.20;1.00
15115;DHT22;7658;51.456;7.622;2023-05-14T13:08:38;25.20;1.00
15115;DHT22;7658;51.456;7.622;2023-05-14T13:11:04;25.50;1.00
15115;DHT22;7658;51.456;7.622;2023-05-14T13:13:30;25.80;1.00
15115;DHT22;7658;51.456;7.622;2023-05-14T13:16:03;26.00;1.00
15115;DHT22;7658;51.456;7.622;2023-05-14T13:19:11;26.30;1.00
15115;DHT22;7658;51.456;7.622;2023-05-14T13:21:48;26.40;1.00
15115;DHT22;7658;51.456;7.622;2023-05-14T13:24:14;25.40;1.00
15115;DHT22;7658;51.456;7.622;2023-05-14T13:26:41;25.30;1.00
15115;DHT22;7658;51.456;7.622;2023-05-14T13:29:08;25.30;1.00
15115;DHT22;7658;51.456;7.622;2023-05-14T13:31:34;25.40;1.00
15115;DHT22;7658;51.456;7.622;2023-05-14T13:34:00;25.60;1.00
15115;DHT22;7658;51.456;7.622;2023-05-14T13:36:35;25.30;1.00
15115;DHT22;7658;51.456;7.622;2023-05-14T13:39:19;25.40;99.90
15115;DHT22;7658;51.456;7.622;2023-05-14T13:41:47;25.40;99.90
15115;DHT22;7658;51.456;7.622;2023-05-14T13:44:15;25.10;99.90
15115;DHT22;7658;51.456;7.622;2023-05-14T13:46:41;24.70;99.90
15115;DHT22;7658;51.456;7.622;2023-05-14T13:49:13;24.40;99.90
15115;DHT22;7658;51.456;7.622;2023-05-14T13:51:48;24.10;99.90
15115;DHT22;7658;51.456;7.622;2023-05-14T13:54:21;24.20;99.90
15115;DHT22;7658;51.456;7.622;2023-05-14T13:56:57;24.30;99.90
15115;DHT22;7658;51.456;7.622;2023-05-14T13:59:32;24.50;99.90
15115;DHT22;7658;51.456;7.622;2023-05-14T14:02:04;24.60;99.90
15115;DHT22;7658;51.456;7.622;2023-05-14T14:07:36;25.20;99.90
15115;DHT22;7658;51.456;7.622;2023-05-14T14:10:45;25.90;99.90
15115;DHT22;7658;51.456;7.622;2023-05-14T14:13:11;26.20;99.90
15115;DHT22;7658;51.456;7.622;2023-05-14T14:16:01;26.10;99.90
15115;DHT22;7658;51.456;7.622;2023-05-14T14:18:37;26.10;99.90
15115;DHT22;7658;51.456;7.622;2023-05-14T14:21:03;26.30;99.90
15115;DHT22;7658;51.456;7.622;2023-05-14T14:23:29;26.40;99.90
15115;DHT22;7658;51.456;7.622;2023-05-14T14:25:55;26.30;99.90
15115;DHT22;7658;51.456;7.622;2023-05-14T14:28:21;26.30;99.90
15115;DHT22;7658;51.456;7.622;2023-05-14T14:30:46;26.50;99.90
15115;DHT22;7658;51.456;7.622;2023-05-14T14:33:12;26.40;99.90
15115;DHT22;7658;51.456;7.622;2023-05-14T14:35:38;26.50;99.90
15115;DHT22;7658;51.456;7.622;2023-05-14T14:38:04;26.60;99.90
15115;DHT22;7658;51.456;7.622;2023-05-14T14:40:34;26.80;99.90
15115;DHT22;7658;51.456;7.622;2023-05-14T14:43:00;27.00;99.90
15115;DHT22;7658;51.456;7.622;2023-05-14T14:45:26;26.60;99.90
15115;DHT22;7658;51.456;7.622;2023-05-14T14:50:50;26.40;99.90
15115;DHT22;7658;51.456;7.622;2023-05-14T14:53:17;26.50;99.90
15115;DHT22;7658;51.456;7.622;2023-05-14T14:55:43;26.90;99.90
15115;DHT22;7658;51.456;7.622;2023-05-14T14:58:09;26.80;99.90
15115;DHT22;7658;51.456;7.622;2023-05-14T15:00:38;26.70;99.90
15115;DHT22;7658;51.456;7.622;2023-05-14T15:03:05;26.50;99.90
15115;DHT22;7658;51.456;7.622;2023-05-14T15:05:34;26.70;99.90
15115;DHT22;7658;51.456;7.622;2023-05-14T15:08:02;26.60;99.90
15115;DHT22;7658;51.456;7.622;2023-05-14T15:10:32;26.40;99.90
15115;DHT22;7658;51.456;7.622;2023-05-14T15:13:05;26.30;99.90
15115;DHT22;7658;51.456;7.622;2023-05-14T15:15:32;26.00;99.90
15115;DHT22;7658;51.456;7.622;2023-05-14T15:18:24;25.80;99.90
15115;DHT22;7658;51.456;7.622;2023-05-14T15:20:50;25.60;99.90
15115;DHT22;7658;51.456;7.622;2023-05-14T15:23:17;25.40;99.90
15115;DHT22;7658;51.456;7.622;2023-05-14T15:25:43;24.70;99.90
15115;DHT22;7658;51.456;7.622;2023-05-14T15:28:09;23.90;99.90
15115;DHT22;7658;51.456;7.622;2023-05-14T15:30:35;23.60;99.90
15115;DHT22;7658;51.456;7.622;2023-05-14T15:33:01;23.20;99.90
15115;DHT22;7658;51.456;7.622;2023-05-14T15:35:27;23.10;99.90
15115;DHT22;7658;51.456;7.622;2023-05-14T15:37:54;23.10;99.90
15115;DHT22;7658;51.456;7.622;2023-05-14T15:40:20;23.20;99.90
15115;DHT22;7658;51.456;7.622;2023-05-14T15:42:46;23.10;99.90
15115;DHT22;7658;51.456;7.622;2023-05-14T15:45:12;23.10;99.90
15115;DHT22;7658;51.456;7.622;2023-05-14T15:47:39;23.30;99.90
15115;DHT22;7658;51.456;7.622;2023-05-14T15:50:06;23.00;99.90
15115;DHT22;7658;51.456;7.622;2023-05-14T15:52:33;22.70;99.90
15115;DHT22;7658;51.456;7.622;2023-05-14T15:55:09;22.40;99.90
15115;DHT22;7658;51.456;7.622;2023-05-14T15:57:38;22.20;99.90
15115;DHT22;7658;51.456;7.622;2023-05-14T16:00:04;22.10;1.00
15115;DHT22;7658;51.456;7.622;2023-05-14T16:02:37;22.00;1.00
15115;DHT22;7658;51.456;7.622;2023-05-14T16:05:03;21.90;1.00
15115;DHT22;7658;51.456;7.622;2023-05-14T16:07:32;21.80;1.00
15115;DHT22;7658;51.456;7.622;2023-05-14T16:09:58;21.60;1.00
15115;DHT22;7658;51.456;7.622;2023-05-14T16:12:23;21.50;1.00
15115;DHT22;7658;51.456;7.622;2023-05-14T16:15:06;21.40;99.90
15115;DHT22;7658;51.456;7.622;2023-05-14T16:17:42;21.40;1.00
15115;DHT22;7658;51.456;7.622;2023-05-14T16:20:32;21.50;1.00